METAR Data
IDs: Format: Raw Decoded Include TAF

Data at: 1752 UTC 21 Sep 2018

K6R3 211735Z AUTO 16005KT 10SM BKN016 BKN023 31/25 A2998 RMK AO2 T03120252
K6R3 211715Z AUTO 15005KT 7SM BKN014 BKN020 30/25 A2999 RMK AO2 T02970251
K6R3 211655Z AUTO 15005KT 7SM SCT013 29/25 A3000 RMK AO2 T02940253
K6R3 211635Z AUTO 00000KT 10SM SCT011 29/25 A3000 RMK AO2 LTG DSNT E T02870252
K6R3 211615Z AUTO 16004KT 10SM SCT010 28/25 A3000 RMK AO2 LTG DSNT E T02820252
K6R3 211555Z AUTO 14004KT 10SM CLR 28/25 A3000 RMK AO2 LTG DSNT E T02800251
K6R3 211535Z AUTO 14003KT 10SM SCT009 SCT015 28/25 A3000 RMK AO2 LTG DSNT E T02800251
K6R3 211515Z AUTO 13003KT 10SM SCT009 SCT015 28/26 A3000 RMK AO2 T02770255
K6R3 211455Z AUTO 00000KT 10SM SCT006 27/26 A3000 RMK AO2 60001 T02710255
K6R3 211435Z AUTO 00000KT 10SM CLR 27/25 A2999 RMK AO2 T02660254
K6R3 211415Z AUTO 12003KT 10SM -DZ SCT018 SCT034 26/25 A2999 RMK AO2 LTG DSNT E T02610250
K6R3 211355Z AUTO 00000KT 10SM -RA SCT018 SCT034 SCT040 26/25 A3000 RMK AO2 P0001 T02570245
K6R3 211335Z AUTO 00000KT 10SM -RA SCT018 SCT032 SCT040 26/25 A3000 RMK AO2 T02560245
K6R3 211315Z AUTO 00000KT 10SM -DZ SCT018 SCT070 SCT100 26/24 A2999 RMK AO2 T02550243
K6R3 211255Z AUTO 00000KT 10SM -RA SCT037 SCT070 BKN100 25/24 A2999 RMK AO2 T02520241
K6R3 211235Z AUTO 00000KT 10SM SCT018 SCT065 SCT075 25/24 A2998 RMK AO2 T02510241
K6R3 211215Z AUTO 00000KT 10SM SCT065 SCT075 25/24 A2998 RMK AO2 T02500240
K6R3 211155Z AUTO 00000KT 7SM CLR 25/24 A2998 RMK AO2 70015 T02500240 10250 20245
K6R3 211135Z AUTO 00000KT 10SM CLR 25/24 A2998 RMK AO2 T02500240
K6R3 211115Z AUTO 00000KT 10SM CLR 25/24 A2998 RMK AO2 T02500240
K6R3 211055Z AUTO 00000KT 10SM SCT026 25/24 A2997 RMK AO2 T02500240
K6R3 211035Z AUTO 00000KT 10SM -RA CLR 25/24 A2996 RMK AO2 T02500240
K6R3 211015Z AUTO 00000KT 10SM SCT018 25/24 A2996 RMK AO2 T02490240
K6R3 210955Z AUTO 00000KT 7SM CLR 25/24 A2996 RMK AO2 T02470237
K6R3 210935Z AUTO 00000KT 7SM CLR 25/24 A2996 RMK AO2 T02470237
K6R3 210915Z AUTO 00000KT 7SM CLR 25/24 A2995 RMK AO2 T02480238
K6R3 210855Z AUTO 00000KT 10SM CLR 25/24 A2995 RMK AO2 T02500240
K6R3 210835Z AUTO 00000KT 7SM CLR 25/24 A2995 RMK AO2 T02480238
K6R3 210815Z AUTO 00000KT 7SM CLR 25/24 A2995 RMK AO2 T02460237
K6R3 210755Z AUTO 00000KT 5SM BR CLR 25/24 A2996 RMK AO2 T02450235
K6R3 210735Z AUTO 00000KT 5SM BR CLR 25/24 A2996 RMK AO2 T02460236
K6R3 210715Z AUTO 00000KT 4SM BR CLR 25/24 A2996 RMK AO2 T02460236
K6R3 210655Z AUTO 00000KT 5SM BR CLR 25/24 A2997 RMK AO2 T02470237
K6R3 210635Z AUTO 00000KT 7SM CLR 25/24 A2997 RMK AO2 T02490237
K6R3 210615Z AUTO 00000KT 10SM CLR 25/24 A2997 RMK AO2 T02500238
K6R3 210555Z AUTO 00000KT 10SM CLR 25/24 A2998 RMK AO2 T02500239 10270 20242 403190220
K6R3 210535Z AUTO 00000KT 10SM CLR 25/24 A2998 RMK AO2 T02500238
K6R3 210515Z AUTO 00000KT 7SM CLR 25/24 A2998 RMK AO2 T02470236
K6R3 210455Z AUTO 00000KT 7SM CLR 25/24 A2999 RMK AO2 T02470236
K6R3 210435Z AUTO 00000KT 10SM CLR 25/24 A2999 RMK AO2 T02460235
K6R3 210415Z AUTO 00000KT 7SM CLR 25/24 A2999 RMK AO2 T02450235
K6R3 210355Z AUTO 00000KT 7SM CLR 25/24 A2999 RMK AO2 T02450235
K6R3 210335Z AUTO 00000KT 7SM CLR 25/24 A2999 RMK AO2 T02450235
K6R3 210315Z AUTO 00000KT 5SM BR CLR 24/23 A2998 RMK AO2 T02430233
K6R3 210255Z AUTO 00000KT 7SM CLR 24/23 A2999 RMK AO2 T02420231
K6R3 210235Z AUTO 00000KT 5SM BR CLR 24/23 A2998 RMK AO2 T02440231
K6R3 210215Z AUTO 00000KT 7SM CLR 25/24 A2998 RMK AO2 T02470235
K6R3 210155Z AUTO 00000KT 5SM BR CLR 25/24 A2997 RMK AO2 T02500236
K6R3 210135Z AUTO 00000KT 7SM CLR 25/24 A2995 RMK AO2 LTG DSNT N T02510235
K6R3 210115Z AUTO 00000KT 10SM CLR 25/24 A2995 RMK AO2 T02540235
K6R3 210055Z AUTO 00000KT 10SM CLR 26/23 A2994 RMK AO2 LTG DSNT N T02570233
K6R3 210035Z AUTO 17003KT 10SM VCTS CLR 26/23 A2993 RMK AO2 LTG DSNT N T02620233
K6R3 210015Z AUTO 00000KT 10SM CLR 27/24 A2994 RMK AO2 LTG DSNT NW THRU NE T02650240
K6R3 202355Z AUTO 00000KT 10SM CLR 27/25 A2994 RMK AO2 LTG DSNT N 60015 T02700245 10296 20270
K6R3 202335Z AUTO 00000KT 10SM SCT032 SCT040 28/25 A2994 RMK AO2 LTG DSNT NE T02770245
K6R3 202315Z AUTO 00000KT 10SM SCT032 SCT040 28/25 A2993 RMK AO2 T02800247
K6R3 202255Z AUTO 00000KT 10SM SCT032 SCT055 SCT075 28/25 A2993 RMK AO2 LTG DSNT SW T02770254
K6R3 202235Z AUTO 00000KT 10SM SCT032 BKN038 28/25 A2993 RMK AO2 T02770252
K6R3 202215Z AUTO 00000KT 10SM CLR 28/24 A2993 RMK AO2 LTG DSNT E T02800241
K6R3 202155Z AUTO 00000KT 10SM SCT037 SCT080 SCT095 28/25 A2993 RMK AO2 T02800250
K6R3 202135Z AUTO 00000KT 10SM SCT035 SCT070 BKN095 28/25 A2993 RMK AO2 T02800254
K6R3 202115Z AUTO 00000KT 10SM VCTS SCT047 SCT060 BKN070 28/24 A2992 RMK AO2 T02780236
K6R3 202055Z AUTO 00000KT 10SM VCTS SCT050 BKN060 BKN070 28/24 A2993 RMK AO2 LTG DSNT SW AND W 60015 T02790243
K6R3 202035Z AUTO 00000KT 10SM SCT060 28/25 A2993 RMK AO2 LTG DSNT SW AND W T02840251
K6R3 202015Z AUTO 00000KT 10SM SCT029 SCT040 BKN085 29/24 A2994 RMK AO2 LTG DSNT SW AND W T02880244
K6R3 201955Z AUTO 03004G14KT 1SM +RA SCT013 BKN026 OVC033 27/23 A2995 RMK AO2 LTG DSNT SW AND NW P0015 T02720233
K6R3 201935Z AUTO 00000KT 10SM RA SCT020 SCT041 BKN055 29/24 A2995 RMK AO2 LTG DSNT SW AND NW T02870240
K6R3 201915Z AUTO 00000KT 10SM SCT042 SCT080 SCT100 30/23 A2996 RMK AO2 LTG DSNT SW AND W T02960228
K6R3 201855Z AUTO 00000KT 7SM CLR 30/23 A2997 RMK AO2 LTG DSNT W AND NW T02950232
K6R3 201835Z AUTO 00000KT 7SM CLR 29/23 A2998 RMK AO2 LTG DSNT S THRU W T02900230
K6R3 201815Z AUTO 00000KT 10SM VCTS CLR 29/23 A2998 RMK AO2 LTG DSNT SW AND W T02880232
K6R3 201755Z AUTO 00000KT 7SM VCTS SCT038 29/23 A2999 RMK AO2 LTG DSNT SW T02880228 10319 20221
K6R3 201735Z AUTO 00000KT 7SM SCT038 SCT048 29/22 A3000 RMK AO2 LTG DSNT SW T02940219
K6R3 201715Z AUTO 16005KT 7SM SCT030 SCT038 SCT045 31/22 A3000 RMK AO2 LTG DSNT SW T03140223
K6R3 201655Z AUTO 00000KT 7SM SCT028 BKN038 BKN050 32/22 A3001 RMK AO2 T03160216
K6R3 201635Z AUTO 16006KT 10SM VCTS SCT026 BKN037 BKN050 31/23 A3001 RMK AO2 LTG DSNT S T03100226
K6R3 201615Z AUTO 16004KT 10SM SCT026 SCT031 BKN038 31/23 A3001 RMK AO2 T03100228
K6R3 201555Z AUTO 19003KT 10SM SCT021 SCT028 30/24 A3002 RMK AO2 T03040236
K6R3 201535Z AUTO 00000KT 10SM SCT013 SCT021 BKN029 30/24 A3002 RMK AO2 T02960239
K6R3 201515Z AUTO 00000KT 7SM BKN013 BKN021 29/25 A3002 RMK AO2 T02890246
K6R3 201455Z AUTO 16003KT 7SM CLR 28/25 A3001 RMK AO2 T02820245
K6R3 201435Z AUTO 00000KT 7SM SCT002 27/25 A3001 RMK AO2 T02650245
K6R3 201415Z AUTO 00000KT 5SM BR BKN002 25/24 A3000 RMK AO2 T02530244
K6R3 201355Z AUTO 00000KT 2 1/2SM BR OVC002 25/24 A3000 RMK AO2 T02450239
K6R3 201335Z AUTO 00000KT 3SM BR BKN002 24/24 A2999 RMK AO2 T02420237
K6R3 201315Z AUTO 00000KT 3SM BR CLR 24/23 A2999 RMK AO2 T02390234
K6R3 201255Z AUTO 00000KT 3SM BR SCT002 24/23 A2998 RMK AO2 T02350230
K6R3 201235Z AUTO 00000KT 5SM BR SCT002 23/22 A2997 RMK AO2 T02270221
K6R3 201215Z AUTO 00000KT 5SM BR CLR 22/22 A2997 RMK AO2 T02230216
K6R3 201155Z AUTO 00000KT 5SM BR CLR 22/22 A2996 RMK AO2 T02210215 10233 20220
K6R3 201135Z AUTO 00000KT 7SM CLR 22/22 A2996 RMK AO2 T02220216
K6R3 201115Z AUTO 00000KT 5SM BR SCT002 22/21 A2996 RMK AO2 T02210214
K6R3 201055Z AUTO 00000KT 4SM BR CLR 22/22 A2996 RMK AO2 T02220215
K6R3 201035Z AUTO 00000KT 3SM BR CLR 22/22 A2995 RMK AO2 T02220215
K6R3 201015Z AUTO 00000KT 5SM BR SCT002 23/22 A2996 RMK AO2 T02250217
K6R3 200955Z AUTO 00000KT 3SM BR SCT002 23/22 A2995 RMK AO2 T02250216
K6R3 200935Z AUTO 00000KT 3SM BR SCT002 22/22 A2995 RMK AO2 T02240215
K6R3 200915Z AUTO 00000KT 5SM BR SCT002 22/21 A2996 RMK AO2 T02220213
K6R3 200855Z AUTO 00000KT 4SM BR CLR 23/22 A2996 RMK AO2 T02250215
K6R3 200835Z AUTO 00000KT 4SM BR CLR 23/22 A2996 RMK AO2 T02250215
K6R3 200815Z AUTO 00000KT 7SM CLR 23/22 A2996 RMK AO2 T02260216
K6R3 200755Z AUTO 00000KT 5SM BR CLR 23/22 A2997 RMK AO2 T02270217
K6R3 200735Z AUTO 00000KT 4SM BR CLR 23/22 A2997 RMK AO2 T02270217
K6R3 200715Z AUTO 00000KT 4SM BR CLR 23/22 A2997 RMK AO2 T02280217
K6R3 200655Z AUTO 00000KT 5SM BR CLR 23/22 A2997 RMK AO2 T02310220
K6R3 200635Z AUTO 00000KT 4SM BR CLR 23/22 A2997 RMK AO2 T02300220
K6R3 200615Z AUTO 00000KT 5SM BR CLR 23/22 A2998 RMK AO2 T02310220
K6R3 200555Z AUTO 00000KT 5SM BR CLR 23/22 A2998 RMK AO2 T02330221 10300 20233 403490230